sensor_id;sensor_type;location;lat;lon;timestamp;P1;durP1;ratioP1;P2;durP2;ratioP2
10450;SDS011;5273;51.290;6.918;2023-04-10T17:10:40;3.70;;;2.65;;
10450;SDS011;5273;51.290;6.918;2023-04-10T17:13:07;3.05;;;2.75;;
10450;SDS011;5273;51.290;6.918;2023-04-10T17:15:34;3.08;;;2.80;;
10450;SDS011;5273;51.290;6.918;2023-04-10T17:18:01;7.30;;;3.42;;
10450;SDS011;5273;51.290;6.918;2023-04-10T17:20:28;3.22;;;2.92;;
10450;SDS011;5273;51.290;6.918;2023-04-10T17:22:55;4.93;;;3.20;;
10450;SDS011;5273;51.290;6.918;2023-04-10T17:25:21;3.70;;;3.40;;
10450;SDS011;5273;51.290;6.918;2023-04-10T17:27:49;4.70;;;3.90;;
10450;SDS011;5273;51.290;6.918;2023-04-10T17:30:16;4.73;;;2.70;;
10450;SDS011;5273;51.290;6.918;2023-04-10T17:32:43;3.47;;;2.90;;
10450;SDS011;5273;51.290;6.918;2023-04-10T17:35:12;2.77;;;2.40;;
10450;SDS011;5273;51.290;6.918;2023-04-10T17:37:39;3.27;;;2.93;;
10450;SDS011;5273;51.290;6.918;2023-04-10T17:40:06;4.63;;;3.07;;
10450;SDS011;5273;51.290;6.918;2023-04-10T17:42:34;3.22;;;2.90;;
10450;SDS011;5273;51.290;6.918;2023-04-10T17:45:02;4.05;;;3.60;;
10450;SDS011;5273;51.290;6.918;2023-04-10T17:47:29;3.83;;;3.42;;
10450;SDS011;5273;51.290;6.918;2023-04-10T17:49:56;4.03;;;3.10;;
10450;SDS011;5273;51.290;6.918;2023-04-10T17:52:23;3.47;;;3.15;;
10450;SDS011;5273;51.290;6.918;2023-04-10T17:54:50;3.22;;;2.92;;
10450;SDS011;5273;51.290;6.918;2023-04-10T17:57:17;3.25;;;2.95;;
10450;SDS011;5273;51.290;6.918;2023-04-10T17:59:44;4.72;;;3.40;;
10450;SDS011;5273;51.290;6.918;2023-04-10T18:02:12;3.83;;;3.22;;
10450;SDS011;5273;51.290;6.918;2023-04-10T18:04:38;3.60;;;3.00;;
10450;SDS011;5273;51.290;6.918;2023-04-10T18:07:05;4.07;;;3.13;;
10450;SDS011;5273;51.290;6.918;2023-04-10T18:09:32;3.28;;;2.97;;
10450;SDS011;5273;51.290;6.918;2023-04-10T18:11:59;4.55;;;3.13;;
10450;SDS011;5273;51.290;6.918;2023-04-10T18:14:26;3.60;;;2.97;;
10450;SDS011;5273;51.290;6.918;2023-04-10T18:16:52;3.50;;;3.20;;
10450;SDS011;5273;51.290;6.918;2023-04-10T18:19:20;3.42;;;2.90;;
10450;SDS011;5273;51.290;6.918;2023-04-10T18:21:47;3.73;;;3.00;;
10450;SDS011;5273;51.290;6.918;2023-04-10T18:24:15;3.30;;;3.00;;
10450;SDS011;5273;51.290;6.918;2023-04-10T18:26:42;3.50;;;3.20;;
10450;SDS011;5273;51.290;6.918;2023-04-10T18:29:09;3.58;;;2.80;;
10450;SDS011;5273;51.290;6.918;2023-04-10T18:31:35;6.15;;;3.60;;
10450;SDS011;5273;51.290;6.918;2023-04-10T18:34:02;4.28;;;2.95;;
10450;SDS011;5273;51.290;6.918;2023-04-10T18:36:30;3.35;;;3.03;;
10450;SDS011;5273;51.290;6.918;2023-04-10T18:38:57;4.28;;;3.10;;
10450;SDS011;5273;51.290;6.918;2023-04-10T18:41:24;3.33;;;3.03;;
10450;SDS011;5273;51.290;6.918;2023-04-10T18:43:50;5.72;;;3.33;;
10450;SDS011;5273;51.290;6.918;2023-04-10T18:46:17;4.03;;;3.35;;
10450;SDS011;5273;51.290;6.918;2023-04-10T18:48:44;3.55;;;3.25;;
10450;SDS011;5273;51.290;6.918;2023-04-10T18:51:14;5.35;;;3.55;;
10450;SDS011;5273;51.290;6.918;2023-04-10T18:53:42;6.00;;;4.40;;
10450;SDS011;5273;51.290;6.918;2023-04-10T18:56:09;4.30;;;3.27;;
10450;SDS011;5273;51.290;6.918;2023-04-10T18:58:35;4.75;;;3.53;;
10450;SDS011;5273;51.290;6.918;2023-04-10T19:01:02;3.58;;;3.17;;
10450;SDS011;5273;51.290;6.918;2023-04-10T19:03:30;5.00;;;3.72;;
10450;SDS011;5273;51.290;6.918;2023-04-10T19:05:56;5.85;;;3.35;;
10450;SDS011;5273;51.290;6.918;2023-04-10T19:08:23;5.18;;;3.70;;
10450;SDS011;5273;51.290;6.918;2023-04-10T19:10:52;6.00;;;3.40;;
10450;SDS011;5273;51.290;6.918;2023-04-10T19:13:19;3.80;;;3.17;;
10450;SDS011;5273;51.290;6.918;2023-04-10T19:15:46;5.07;;;3.63;;
10450;SDS011;5273;51.290;6.918;2023-04-10T19:18:13;5.50;;;4.10;;
10450;SDS011;5273;51.290;6.918;2023-04-10T19:20:40;7.03;;;4.37;;
10450;SDS011;5273;51.290;6.918;2023-04-10T19:23:07;6.73;;;3.90;;
10450;SDS011;5273;51.290;6.918;2023-04-10T19:25:35;4.07;;;3.67;;
10450;SDS011;5273;51.290;6.918;2023-04-10T19:28:03;3.77;;;3.40;;
10450;SDS011;5273;51.290;6.918;2023-04-10T19:30:30;6.67;;;3.60;;
10450;SDS011;5273;51.290;6.918;2023-04-10T19:32:57;3.53;;;3.00;;
10450;SDS011;5273;51.290;6.918;2023-04-10T19:35:24;4.77;;;2.83;;
10450;SDS011;5273;51.290;6.918;2023-04-10T19:37:51;3.83;;;2.60;;
10450;SDS011;5273;51.290;6.918;2023-04-10T19:40:21;1.80;;;1.30;;
10450;SDS011;5273;51.290;6.918;2023-04-10T19:42:48;1.80;;;1.37;;
10450;SDS011;5273;51.290;6.918;2023-04-10T19:45:16;1.57;;;1.40;;
10450;SDS011;5273;51.290;6.918;2023-04-10T19:47:44;2.10;;;1.30;;
10450;SDS011;5273;51.290;6.918;2023-04-10T19:50:10;2.53;;;1.50;;
10450;SDS011;5273;51.290;6.918;2023-04-10T19:52:37;2.47;;;1.50;;
10450;SDS011;5273;51.290;6.918;2023-04-10T19:55:04;4.40;;;1.70;;
10450;SDS011;5273;51.290;6.918;2023-04-10T19:57:32;2.77;;;1.67;;
10450;SDS011;5273;51.290;6.918;2023-04-10T19:59:58;2.40;;;1.60;;
10450;SDS011;5273;51.290;6.918;2023-04-10T20:02:26;5.10;;;1.77;;
10450;SDS011;5273;51.290;6.918;2023-04-10T20:04:53;4.95;;;1.63;;
10450;SDS011;5273;51.290;6.918;2023-04-10T20:07:20;2.30;;;1.30;;
10450;SDS011;5273;51.290;6.918;2023-04-10T20:09:47;4.83;;;1.80;;
10450;SDS011;5273;51.290;6.918;2023-04-10T20:12:14;4.10;;;1.63;;
10450;SDS011;5273;51.290;6.918;2023-04-10T20:14:41;3.07;;;2.27;;
10450;SDS011;5273;51.290;6.918;2023-04-10T20:17:08;6.03;;;1.70;;
10450;SDS011;5273;51.290;6.918;2023-04-10T20:19:37;3.17;;;1.67;;
10450;SDS011;5273;51.290;6.918;2023-04-10T20:22:05;1.80;;;1.53;;
10450;SDS011;5273;51.290;6.918;2023-04-10T20:24:32;1.63;;;1.23;;
10450;SDS011;5273;51.290;6.918;2023-04-10T20:26:59;3.23;;;1.50;;
10450;SDS011;5273;51.290;6.918;2023-04-10T20:29:26;4.22;;;1.83;;
10450;SDS011;5273;51.290;6.918;2023-04-10T20:31:53;4.70;;;1.77;;
10450;SDS011;5273;51.290;6.918;2023-04-10T20:34:20;3.07;;;1.77;;
10450;SDS011;5273;51.290;6.918;2023-04-10T20:36:48;4.50;;;2.10;;
10450;SDS011;5273;51.290;6.918;2023-04-10T20:39:15;4.23;;;1.90;;
10450;SDS011;5273;51.290;6.918;2023-04-10T20:41:42;2.20;;;1.83;;
10450;SDS011;5273;51.290;6.918;2023-04-10T20:44:08;2.00;;;1.90;;
10450;SDS011;5273;51.290;6.918;2023-04-10T20:46:35;4.87;;;1.80;;
10450;SDS011;5273;51.290;6.918;2023-04-10T20:49:02;3.27;;;2.10;;
10450;SDS011;5273;51.290;6.918;2023-04-10T20:51:29;7.33;;;2.23;;
10450;SDS011;5273;51.290;6.918;2023-04-10T20:53:59;2.97;;;2.03;;
10450;SDS011;5273;51.290;6.918;2023-04-10T20:56:25;2.43;;;2.10;;
10450;SDS011;5273;51.290;6.918;2023-04-10T20:58:52;2.77;;;1.63;;
10450;SDS011;5273;51.290;6.918;2023-04-10T21:01:19;2.20;;;1.40;;
10450;SDS011;5273;51.290;6.918;2023-04-10T21:03:46;2.27;;;1.40;;
10450;SDS011;5273;51.290;6.918;2023-04-10T21:06:13;1.60;;;1.20;;
10450;SDS011;5273;51.290;6.918;2023-04-10T21:08:40;2.20;;;0.97;;
10450;SDS011;5273;51.290;6.918;2023-04-10T21:11:08;2.47;;;1.30;;
10450;SDS011;5273;51.290;6.918;2023-04-10T21:13:35;2.33;;;1.40;;
10450;SDS011;5273;51.290;6.918;2023-04-10T21:16:02;4.43;;;1.33;;
10450;SDS011;5273;51.290;6.918;2023-04-10T21:18:29;5.97;;;1.53;;
10450;SDS011;5273;51.290;6.918;2023-04-10T21:20:56;2.50;;;1.23;;
10450;SDS011;5273;51.290;6.918;2023-04-10T21:23:23;1.77;;;1.30;;
10450;SDS011;5273;51.290;6.918;2023-04-10T21:25:49;2.63;;;1.20;;
10450;SDS011;5273;51.290;6.918;2023-04-10T21:28:18;2.57;;;1.10;;
10450;SDS011;5273;51.290;6.918;2023-04-10T21:30:45;1.60;;;1.10;;
10450;SDS011;5273;51.290;6.918;2023-04-10T21:33:13;5.00;;;1.50;;
10450;SDS011;5273;51.290;6.918;2023-04-10T21:35:40;2.47;;;1.00;;
10450;SDS011;5273;51.290;6.918;2023-04-10T21:38:08;2.90;;;1.20;;
10450;SDS011;5273;51.290;6.918;2023-04-10T21:40:36;3.53;;;1.10;;
10450;SDS011;5273;51.290;6.918;2023-04-10T21:43:02;2.67;;;1.20;;
10450;SDS011;5273;51.290;6.918;2023-04-10T21:45:31;3.97;;;1.23;;
10450;SDS011;5273;51.290;6.918;2023-04-10T21:47:59;1.23;;;1.13;;
10450;SDS011;5273;51.290;6.918;2023-04-10T21:50:26;2.23;;;1.23;;
10450;SDS011;5273;51.290;6.918;2023-04-10T21:52:52;0.90;;;0.90;;
10450;SDS011;5273;51.290;6.918;2023-04-10T21:55:19;3.10;;;1.10;;
10450;SDS011;5273;51.290;6.918;2023-04-10T21:57:46;1.30;;;1.10;;
10450;SDS011;5273;51.290;6.918;2023-04-10T22:00:13;2.27;;;1.30;;
10450;SDS011;5273;51.290;6.918;2023-04-10T22:02:42;1.30;;;1.20;;
10450;SDS011;5273;51.290;6.918;2023-04-10T22:05:10;4.10;;;1.40;;
10450;SDS011;5273;51.290;6.918;2023-04-10T22:07:37;1.47;;;1.30;;
10450;SDS011;5273;51.290;6.918;2023-04-10T22:10:04;2.73;;;1.47;;
10450;SDS011;5273;51.290;6.918;2023-04-10T22:12:32;2.63;;;1.37;;
10450;SDS011;5273;51.290;6.918;2023-04-10T22:14:59;3.40;;;1.50;;
10450;SDS011;5273;51.290;6.918;2023-04-10T22:17:25;1.80;;;1.57;;
10450;SDS011;5273;51.290;6.918;2023-04-10T22:19:54;2.57;;;1.43;;
10450;SDS011;5273;51.290;6.918;2023-04-10T22:22:20;3.17;;;1.13;;
10450;SDS011;5273;51.290;6.918;2023-04-10T22:24:47;2.40;;;1.63;;
10450;SDS011;5273;51.290;6.918;2023-04-10T22:27:14;2.97;;;1.70;;
10450;SDS011;5273;51.290;6.918;2023-04-10T22:29:41;2.40;;;1.50;;
10450;SDS011;5273;51.290;6.918;2023-04-10T22:32:08;3.17;;;1.90;;
10450;SDS011;5273;51.290;6.918;2023-04-10T22:34:35;2.53;;;1.57;;
10450;SDS011;5273;51.290;6.918;2023-04-10T22:37:03;3.17;;;1.67;;
10450;SDS011;5273;51.290;6.918;2023-04-10T22:39:29;4.23;;;1.60;;
10450;SDS011;5273;51.290;6.918;2023-04-10T22:41:56;2.60;;;1.93;;
10450;SDS011;5273;51.290;6.918;2023-04-10T22:44:23;1.97;;;1.53;;
10450;SDS011;5273;51.290;6.918;2023-04-10T22:46:50;3.87;;;2.00;;
10450;SDS011;5273;51.290;6.918;2023-04-10T22:49:16;3.27;;;2.30;;
10450;SDS011;5273;51.290;6.918;2023-04-10T22:51:43;3.03;;;2.00;;
10450;SDS011;5273;51.290;6.918;2023-04-10T22:54:12;5.07;;;2.20;;
10450;SDS011;5273;51.290;6.918;2023-04-10T22:56:39;2.70;;;1.80;;
10450;SDS011;5273;51.290;6.918;2023-04-10T22:59:08;4.80;;;1.83;;
10450;SDS011;5273;51.290;6.918;2023-04-10T23:01:34;2.63;;;1.60;;
10450;SDS011;5273;51.290;6.918;2023-04-10T23:04:01;4.30;;;1.87;;
10450;SDS011;5273;51.290;6.918;2023-04-10T23:06:28;3.77;;;1.80;;
10450;SDS011;5273;51.290;6.918;2023-04-10T23:08:55;4.83;;;2.23;;
10450;SDS011;5273;51.290;6.918;2023-04-10T23:11:23;2.13;;;1.80;;
10450;SDS011;5273;51.290;6.918;2023-04-10T23:13:50;3.10;;;2.30;;
10450;SDS011;5273;51.290;6.918;2023-04-10T23:16:17;3.30;;;1.97;;
10450;SDS011;5273;51.290;6.918;2023-04-10T23:18:44;3.53;;;2.03;;
10450;SDS011;5273;51.290;6.918;2023-04-10T23:21:10;5.33;;;2.13;;
10450;SDS011;5273;51.290;6.918;2023-04-10T23:23:37;5.93;;;2.30;;
10450;SDS011;5273;51.290;6.918;2023-04-10T23:26:04;2.97;;;2.10;;
10450;SDS011;5273;51.290;6.918;2023-04-10T23:28:33;2.37;;;1.70;;
10450;SDS011;5273;51.290;6.918;2023-04-10T23:30:59;4.83;;;2.10;;
10450;SDS011;5273;51.290;6.918;2023-04-10T23:33:26;4.00;;;2.00;;
10450;SDS011;5273;51.290;6.918;2023-04-10T23:35:53;3.77;;;1.60;;
10450;SDS011;5273;51.290;6.918;2023-04-10T23:38:20;2.97;;;1.80;;
10450;SDS011;5273;51.290;6.918;2023-04-10T23:40:46;2.43;;;1.80;;
10450;SDS011;5273;51.290;6.918;2023-04-10T23:43:13;2.00;;;1.40;;
10450;SDS011;5273;51.290;6.918;2023-04-10T23:45:41;3.10;;;1.63;;
10450;SDS011;5273;51.290;6.918;2023-04-10T23:48:08;5.87;;;1.70;;
10450;SDS011;5273;51.290;6.918;2023-04-10T23:50:35;2.67;;;1.60;;
10450;SDS011;5273;51.290;6.918;2023-04-10T23:53:02;3.07;;;1.77;;
10450;SDS011;5273;51.290;6.918;2023-04-10T23:55:32;1.67;;;1.30;;
10450;SDS011;5273;51.290;6.918;2023-04-10T23:57:59;2.57;;;1.70;;
